createdAt,value
2023-07-02T00:00:10.017Z,5.63
2023-07-02T00:02:38.254Z,3.58
2023-07-02T00:05:06.515Z,3.65
2023-07-02T00:07:35.469Z,4.43
2023-07-02T00:10:02.658Z,3.30
2023-07-02T00:12:29.664Z,3.55
2023-07-02T00:14:56.728Z,2.75
2023-07-02T00:17:23.802Z,7.15
2023-07-02T00:19:53.498Z,3.42
2023-07-02T00:22:21.835Z,3.92
2023-07-02T00:24:49.135Z,6.40
2023-07-02T00:27:16.199Z,2.72
2023-07-02T00:29:43.363Z,8.65
2023-07-02T00:32:10.372Z,4.20
2023-07-02T00:34:37.610Z,3.03
2023-07-02T00:37:04.676Z,4.13
2023-07-02T00:39:32.026Z,3.25
2023-07-02T00:42:06.338Z,2.55
2023-07-02T00:44:33.516Z,2.50
2023-07-02T00:47:01.152Z,5.30
2023-07-02T00:49:28.606Z,5.32
2023-07-02T00:51:56.187Z,2.83
2023-07-02T00:54:23.386Z,10.75
2023-07-02T00:56:51.502Z,3.50
2023-07-02T00:59:18.537Z,5.45
2023-07-02T01:01:50.872Z,4.47
2023-07-02T01:04:20.833Z,3.75
2023-07-02T01:06:48.211Z,3.35
2023-07-02T01:09:15.370Z,4.80
2023-07-02T01:11:47.738Z,9.90
2023-07-02T01:14:27.484Z,2.85
2023-07-02T01:16:56.827Z,6.53
2023-07-02T01:19:41.695Z,2.25
2023-07-02T01:22:09.259Z,5.63
2023-07-02T01:24:38.029Z,4.93
2023-07-02T01:27:05.934Z,2.35
2023-07-02T01:29:33.116Z,3.88
2023-07-02T01:32:00.245Z,2.53
2023-07-02T01:34:27.411Z,6.13
2023-07-02T01:36:54.448Z,2.10
2023-07-02T01:39:21.496Z,3.97
2023-07-02T01:42:10.485Z,2.53
2023-07-02T01:44:38.196Z,5.03
2023-07-02T01:47:06.496Z,2.20
2023-07-02T01:49:33.695Z,3.05
2023-07-02T01:52:00.762Z,3.20
2023-07-02T01:54:29.591Z,5.00
2023-07-02T01:56:57.467Z,7.78
2023-07-02T01:59:24.858Z,3.33
2023-07-02T02:01:52.333Z,5.30
2023-07-02T02:04:19.504Z,3.20
2023-07-02T02:06:46.650Z,3.35
2023-07-02T02:09:13.634Z,7.18
2023-07-02T02:11:45.694Z,2.97
2023-07-02T02:14:12.928Z,12.50
2023-07-02T02:16:40.435Z,4.30
2023-07-02T02:19:07.808Z,2.90
2023-07-02T02:21:34.914Z,9.10
2023-07-02T02:24:01.992Z,3.85
2023-07-02T02:26:28.991Z,8.52
2023-07-02T02:28:56.020Z,2.85
2023-07-02T02:31:23.076Z,2.67
2023-07-02T02:33:50.360Z,2.85
2023-07-02T02:36:18.700Z,3.85
2023-07-02T02:38:45.959Z,7.82
2023-07-02T02:41:13.784Z,2.42
2023-07-02T02:43:45.847Z,5.38
2023-07-02T02:46:22.921Z,2.13
2023-07-02T02:48:50.770Z,2.67
2023-07-02T02:51:17.839Z,3.70
2023-07-02T02:53:44.831Z,2.75
2023-07-02T02:56:11.874Z,5.30
2023-07-02T02:58:38.944Z,5.00
2023-07-02T03:01:11.579Z,3.75
2023-07-02T03:03:46.419Z,4.20
2023-07-02T03:06:17.105Z,3.58
2023-07-02T03:08:44.307Z,7.03
2023-07-02T03:11:11.539Z,3.63
2023-07-02T03:13:39.009Z,4.50
2023-07-02T03:16:06.824Z,2.58
2023-07-02T03:18:34.879Z,3.55
2023-07-02T03:21:02.445Z,4.05
2023-07-02T03:23:29.482Z,4.85
2023-07-02T03:25:56.838Z,4.18
2023-07-02T03:28:23.847Z,2.83
2023-07-02T03:30:51.114Z,6.28
2023-07-02T03:33:18.643Z,4.38
2023-07-02T03:35:45.650Z,4.80
2023-07-02T03:38:12.731Z,3.38
2023-07-02T03:40:39.710Z,5.95
2023-07-02T03:43:08.320Z,10.65
2023-07-02T03:45:35.276Z,8.02
2023-07-02T03:48:02.344Z,13.00
2023-07-02T03:50:29.393Z,10.25
2023-07-02T03:52:56.366Z,7.75
2023-07-02T03:55:23.349Z,9.35
2023-07-02T03:57:50.349Z,8.35
2023-07-02T04:00:17.722Z,9.98
2023-07-02T04:02:44.907Z,7.95
2023-07-02T04:05:12.189Z,13.43
2023-07-02T04:07:39.252Z,5.90
2023-07-02T04:10:07.186Z,7.18
2023-07-02T04:12:34.284Z,9.35
2023-07-02T04:15:01.310Z,6.35
2023-07-02T04:17:28.381Z,8.48
2023-07-02T04:19:56.705Z,7.85
2023-07-02T04:22:23.682Z,12.20
2023-07-02T04:24:51.599Z,6.88
2023-07-02T04:27:45.918Z,8.52
2023-07-02T04:30:09.503Z,10.23
2023-07-02T04:32:37.400Z,9.07
2023-07-02T04:35:04.767Z,13.40
2023-07-02T04:37:31.737Z,5.75
2023-07-02T04:39:58.801Z,15.45
2023-07-02T04:42:35.992Z,9.52
2023-07-02T04:45:03.131Z,16.63
2023-07-02T04:47:31.285Z,8.43
2023-07-02T04:49:58.952Z,12.45
2023-07-02T04:52:26.229Z,6.22
2023-07-02T04:54:53.753Z,11.98
2023-07-02T04:57:20.828Z,9.25
2023-07-02T04:59:47.891Z,8.40
2023-07-02T05:02:14.886Z,8.75
2023-07-02T05:04:41.961Z,13.05
2023-07-02T05:07:09.233Z,8.18
2023-07-02T05:09:36.235Z,13.18
2023-07-02T05:12:03.354Z,10.15
2023-07-02T05:14:30.422Z,5.82
2023-07-02T05:16:57.509Z,9.18
2023-07-02T05:19:24.594Z,9.88
2023-07-02T05:21:51.575Z,8.45
2023-07-02T05:24:18.629Z,7.35
2023-07-02T05:26:45.649Z,10.80
2023-07-02T05:29:13.279Z,8.13
2023-07-02T05:31:40.407Z,10.00
2023-07-02T05:34:07.516Z,8.63
2023-07-02T05:36:35.678Z,10.85
2023-07-02T05:39:02.663Z,9.43
2023-07-02T05:41:31.640Z,8.55
2023-07-02T05:43:59.448Z,11.20
2023-07-02T05:46:26.731Z,9.18
2023-07-02T05:48:57.127Z,5.30
2023-07-02T05:51:25.159Z,6.35
2023-07-02T05:53:53.081Z,2.22
2023-07-02T05:56:20.322Z,5.43
2023-07-02T05:58:48.972Z,6.43
2023-07-02T06:01:16.243Z,6.50
2023-07-02T06:03:45.278Z,3.58
2023-07-02T06:06:13.055Z,9.20
2023-07-02T06:08:40.052Z,9.23
2023-07-02T06:11:07.144Z,4.60
2023-07-02T06:13:34.440Z,6.43
2023-07-02T06:16:01.516Z,10.63
2023-07-02T06:18:28.611Z,7.65
2023-07-02T06:20:55.759Z,8.32
2023-07-02T06:23:23.115Z,10.85
2023-07-02T06:25:52.843Z,13.63
2023-07-02T06:28:20.161Z,11.30
2023-07-02T06:30:47.588Z,12.48
2023-07-02T06:33:14.801Z,13.65
2023-07-02T06:35:41.792Z,16.90
2023-07-02T06:38:08.785Z,27.55
2023-07-02T06:40:36.174Z,17.70
2023-07-02T06:43:03.262Z,7.63
2023-07-02T06:45:30.274Z,14.85
2023-07-02T06:47:57.327Z,14.57
2023-07-02T06:50:24.869Z,12.23
2023-07-02T06:52:51.813Z,9.68
2023-07-02T06:55:18.813Z,10.05
2023-07-02T06:57:47.361Z,13.20
2023-07-02T07:00:15.494Z,9.38
2023-07-02T07:02:42.970Z,10.38
2023-07-02T07:05:10.811Z,14.20
2023-07-02T07:07:38.423Z,11.80
2023-07-02T07:10:06.493Z,16.20
2023-07-02T07:12:33.571Z,12.15
2023-07-02T07:15:00.725Z,15.60
2023-07-02T07:17:27.896Z,13.20
2023-07-02T07:19:54.925Z,15.00
2023-07-02T07:22:21.910Z,14.10
2023-07-02T07:24:50.056Z,11.82
2023-07-02T07:27:17.129Z,14.48
2023-07-02T07:29:44.135Z,30.60
2023-07-02T07:32:11.207Z,13.60
2023-07-02T07:34:38.174Z,8.18
2023-07-02T07:37:06.007Z,13.00
2023-07-02T07:39:33.109Z,12.50
2023-07-02T07:42:00.115Z,6.80
2023-07-02T07:44:30.328Z,10.93
2023-07-02T07:46:57.473Z,11.20
2023-07-02T07:49:25.802Z,13.10
2023-07-02T07:51:53.355Z,13.52
2023-07-02T07:54:20.476Z,12.27
2023-07-02T07:56:47.665Z,15.95
2023-07-02T07:59:15.866Z,14.90
2023-07-02T08:01:43.080Z,12.27
2023-07-02T08:04:10.350Z,14.93
2023-07-02T08:06:37.443Z,14.43
2023-07-02T08:09:04.785Z,13.85
2023-07-02T08:11:31.774Z,14.02
2023-07-02T08:13:59.089Z,15.00
2023-07-02T08:16:26.146Z,10.73
2023-07-02T08:18:53.176Z,19.45
2023-07-02T08:21:20.339Z,22.13
2023-07-02T08:23:47.352Z,18.67
2023-07-02T08:26:15.366Z,11.98
2023-07-02T08:28:42.497Z,17.25
2023-07-02T08:31:09.881Z,16.40
2023-07-02T08:33:36.921Z,16.48
2023-07-02T08:36:04.103Z,13.70
2023-07-02T08:38:31.121Z,16.15
2023-07-02T08:40:58.291Z,19.50
2023-07-02T08:43:28.423Z,21.50
2023-07-02T08:45:55.708Z,22.05
2023-07-02T08:48:25.348Z,22.13
2023-07-02T08:50:52.435Z,20.50
2023-07-02T08:53:20.567Z,16.38
2023-07-02T08:55:47.513Z,19.15
2023-07-02T08:58:15.933Z,23.67
2023-07-02T09:01:10.040Z,16.48
2023-07-02T09:03:38.451Z,20.55
2023-07-02T09:06:10.717Z,18.90
2023-07-02T09:08:39.539Z,15.15
2023-07-02T09:11:18.821Z,11.38
2023-07-02T09:14:00.060Z,20.95
2023-07-02T09:16:37.547Z,14.57
2023-07-02T09:19:09.796Z,25.67
2023-07-02T09:21:48.365Z,14.52
2023-07-02T09:24:25.661Z,17.08
2023-07-02T09:26:55.762Z,10.10
2023-07-02T09:29:25.503Z,19.63
2023-07-02T09:32:08.769Z,19.88
2023-07-02T09:34:39.109Z,17.92
2023-07-02T09:37:06.932Z,24.30
2023-07-02T09:39:36.977Z,30.38
2023-07-02T09:42:09.297Z,16.90
2023-07-02T09:44:37.184Z,12.02
2023-07-02T09:47:09.696Z,23.48
2023-07-02T09:49:43.470Z,19.30
2023-07-02T09:52:12.960Z,21.75
2023-07-02T09:54:40.074Z,22.92
2023-07-02T09:57:08.292Z,17.38
2023-07-02T09:59:36.045Z,23.00
2023-07-02T10:02:03.387Z,20.20
2023-07-02T10:04:45.641Z,21.20
2023-07-02T10:07:14.088Z,22.38
2023-07-02T10:09:44.694Z,21.45
2023-07-02T10:12:33.990Z,21.08
2023-07-02T10:15:01.300Z,24.15
2023-07-02T10:17:35.824Z,15.52
2023-07-02T10:20:08.800Z,18.88
2023-07-02T10:22:49.008Z,24.85
2023-07-02T10:25:38.730Z,24.73
2023-07-02T10:28:21.231Z,22.27
2023-07-02T10:30:48.560Z,18.70
2023-07-02T10:33:18.066Z,25.55
2023-07-02T10:35:51.128Z,17.80
2023-07-02T10:38:24.840Z,15.27
2023-07-02T10:41:04.267Z,22.48
2023-07-02T10:43:33.574Z,19.63
2023-07-02T10:46:02.593Z,21.77
2023-07-02T10:48:30.879Z,17.13
2023-07-02T10:50:58.242Z,19.52
2023-07-02T10:53:25.334Z,21.73
2023-07-02T10:56:00.385Z,20.50
2023-07-02T10:58:28.061Z,20.13
2023-07-02T11:00:55.301Z,22.63
2023-07-02T11:03:25.147Z,22.95
2023-07-02T11:05:53.677Z,19.13
2023-07-02T11:08:22.521Z,19.20
2023-07-02T11:11:07.779Z,21.90
2023-07-02T11:13:34.990Z,16.60
2023-07-02T11:16:02.309Z,22.73
2023-07-02T11:18:33.152Z,17.27
2023-07-02T11:21:11.641Z,18.33
2023-07-02T11:23:38.621Z,20.30
2023-07-02T11:26:05.637Z,16.38
2023-07-02T11:28:38.815Z,18.08
2023-07-02T11:31:08.634Z,20.52
2023-07-02T11:33:43.879Z,12.38
2023-07-02T11:37:10.185Z,14.10
2023-07-02T11:41:03.253Z,17.73
2023-07-02T11:58:09.618Z,22.33
2023-07-02T12:06:25.743Z,22.67
2023-07-02T12:09:12.735Z,24.33
2023-07-02T12:11:59.965Z,23.58
2023-07-02T12:14:27.403Z,10.32
2023-07-02T12:16:54.808Z,19.10
2023-07-02T12:19:26.610Z,17.02
2023-07-02T12:22:23.373Z,18.73
2023-07-02T12:25:42.492Z,19.92
2023-07-02T12:28:13.757Z,14.60
2023-07-02T12:30:42.607Z,16.95
2023-07-02T12:33:12.680Z,14.77
2023-07-02T12:36:20.396Z,19.83
2023-07-02T12:38:51.522Z,20.77
2023-07-02T12:41:19.104Z,21.85
2023-07-02T12:43:55.331Z,16.15
2023-07-02T12:46:23.319Z,17.08
2023-07-02T12:48:53.166Z,17.40
2023-07-02T12:51:40.923Z,17.65
2023-07-02T12:54:29.228Z,12.88
2023-07-02T12:56:58.886Z,16.27
2023-07-02T12:59:28.440Z,20.05
2023-07-02T13:02:00.377Z,14.98
2023-07-02T13:04:35.101Z,15.45
2023-07-02T13:07:07.019Z,18.35
2023-07-02T13:09:39.307Z,20.73
2023-07-02T13:12:23.287Z,22.52
2023-07-02T13:14:55.270Z,27.67
2023-07-02T13:17:27.354Z,19.58
2023-07-02T13:19:54.387Z,22.00
2023-07-02T13:22:22.748Z,19.90
2023-07-02T13:24:49.905Z,16.75
2023-07-02T13:27:18.904Z,18.08
2023-07-02T13:29:53.896Z,17.27
2023-07-02T13:32:25.914Z,20.83
2023-07-02T13:34:57.772Z,16.25
2023-07-02T13:37:35.040Z,17.00
2023-07-02T13:53:56.057Z,20.60
2023-07-02T13:59:33.711Z,20.52
2023-07-02T14:02:01.323Z,17.42
2023-07-02T14:04:28.432Z,19.75
2023-07-02T14:06:55.523Z,17.98
2023-07-02T14:09:22.604Z,18.58
2023-07-02T14:11:50.029Z,18.52
2023-07-02T14:14:17.139Z,20.08
2023-07-02T14:16:44.393Z,21.00
2023-07-02T14:19:11.579Z,13.50
2023-07-02T14:21:39.182Z,16.13
2023-07-02T14:24:06.620Z,19.13
2023-07-02T14:26:33.695Z,14.98
2023-07-02T14:29:00.679Z,17.77
2023-07-02T14:31:27.699Z,19.55
2023-07-02T14:33:54.993Z,16.50
2023-07-02T14:36:22.031Z,12.48
2023-07-02T14:38:49.144Z,17.63
2023-07-02T14:41:16.163Z,18.48
2023-07-02T14:43:43.251Z,11.43
2023-07-02T14:46:10.623Z,17.02
2023-07-02T14:48:37.766Z,16.00
2023-07-02T14:51:05.778Z,16.42
2023-07-02T14:53:35.069Z,16.70
2023-07-02T14:56:03.671Z,16.75
2023-07-02T14:58:32.035Z,15.68
2023-07-02T15:01:00.204Z,16.48
2023-07-02T15:03:29.920Z,17.25
2023-07-02T15:06:11.996Z,16.45
2023-07-02T15:08:39.645Z,18.63
2023-07-02T15:11:07.183Z,19.38
2023-07-02T15:13:34.468Z,17.25
2023-07-02T15:16:01.783Z,15.25
2023-07-02T15:18:29.038Z,16.63
2023-07-02T15:20:57.430Z,14.05
2023-07-02T15:23:26.467Z,13.27
2023-07-02T15:25:59.462Z,16.95
2023-07-02T15:28:28.034Z,15.52
2023-07-02T15:31:09.629Z,17.80
2023-07-02T15:33:36.867Z,16.15
2023-07-02T15:36:08.220Z,26.17
2023-07-02T15:38:35.262Z,14.82
2023-07-02T15:41:21.552Z,20.80
2023-07-02T15:43:49.046Z,17.67
2023-07-02T15:46:18.299Z,15.77
2023-07-02T15:48:45.774Z,15.05
2023-07-02T15:51:13.417Z,17.50
2023-07-02T15:53:43.219Z,22.38
2023-07-02T15:56:10.442Z,16.52
2023-07-02T15:58:37.539Z,17.75
2023-07-02T16:01:19.829Z,14.90
2023-07-02T16:03:47.005Z,16.40
2023-07-02T16:06:15.385Z,20.08
2023-07-02T16:08:43.990Z,21.52
2023-07-02T16:11:13.005Z,17.40
2023-07-02T16:13:42.613Z,18.40
2023-07-02T16:16:10.285Z,19.23
2023-07-02T16:18:37.335Z,18.42
2023-07-02T16:21:06.202Z,22.42
2023-07-02T16:23:34.131Z,22.52
2023-07-02T16:26:06.774Z,16.23
2023-07-02T16:28:36.655Z,19.38
2023-07-02T16:31:03.827Z,14.38
2023-07-02T16:33:34.465Z,17.00
2023-07-02T16:36:09.411Z,17.20
2023-07-02T16:38:37.420Z,16.95
2023-07-02T16:41:07.054Z,15.93
2023-07-02T16:43:35.206Z,17.15
2023-07-02T16:46:02.300Z,13.68
2023-07-02T16:48:29.333Z,21.15
2023-07-02T16:51:06.817Z,14.55
2023-07-02T16:53:35.098Z,16.45
2023-07-02T16:56:05.182Z,16.40
2023-07-02T16:58:33.527Z,17.42
2023-07-02T17:01:08.857Z,16.27
2023-07-02T17:03:36.617Z,17.23
2023-07-02T17:06:06.824Z,16.85
2023-07-02T17:08:43.934Z,16.27
2023-07-02T17:11:12.849Z,18.75
2023-07-02T17:13:40.137Z,17.45
2023-07-02T17:16:08.037Z,15.07
2023-07-02T17:18:35.696Z,17.20
2023-07-02T17:21:03.207Z,15.13
2023-07-02T17:27:33.209Z,18.60
2023-07-02T17:30:05.547Z,16.77
2023-07-02T17:32:32.957Z,16.52
2023-07-02T17:35:00.083Z,19.73
2023-07-02T17:37:27.362Z,16.80
2023-07-02T17:39:55.287Z,17.13
2023-07-02T17:42:22.619Z,16.35
2023-07-02T17:44:50.372Z,19.27
2023-07-02T17:47:19.051Z,22.23
2023-07-02T17:49:49.456Z,20.92
2023-07-02T17:52:21.821Z,17.50
2023-07-02T17:54:52.018Z,17.08
2023-07-02T17:57:19.953Z,17.13
2023-07-02T17:59:49.003Z,18.60
2023-07-02T18:02:18.102Z,20.45
2023-07-02T18:04:46.459Z,24.65
2023-07-02T18:07:21.662Z,32.38
2023-07-02T18:09:51.840Z,16.73
2023-07-02T18:12:24.269Z,21.88
2023-07-02T18:14:52.433Z,18.20
2023-07-02T18:17:19.984Z,17.60
2023-07-02T18:19:47.573Z,20.42
2023-07-02T18:22:14.938Z,19.73
2023-07-02T18:24:42.764Z,17.10
2023-07-02T18:27:11.105Z,18.33
2023-07-02T18:29:39.140Z,19.40
2023-07-02T18:32:08.206Z,23.08
2023-07-02T18:34:39.205Z,20.10
2023-07-02T18:37:08.132Z,21.08
2023-07-02T18:39:35.693Z,20.83
2023-07-02T18:42:06.631Z,19.00
2023-07-02T18:44:36.986Z,21.15
2023-07-02T18:47:10.779Z,17.80
2023-07-02T18:49:38.856Z,18.10
2023-07-02T18:52:14.866Z,18.90
2023-07-02T18:54:42.845Z,18.77
2023-07-02T18:57:12.271Z,19.88
2023-07-02T18:59:48.421Z,22.08
2023-07-02T19:02:17.471Z,16.63
2023-07-02T19:04:53.334Z,17.25
2023-07-02T19:07:22.474Z,20.00
2023-07-02T19:09:49.844Z,27.13
2023-07-02T19:12:17.052Z,20.02
2023-07-02T19:14:44.430Z,17.17
2023-07-02T19:17:13.107Z,22.85
2023-07-02T19:19:42.461Z,18.67
2023-07-02T19:22:17.188Z,23.45
2023-07-02T19:24:44.740Z,19.63
2023-07-02T19:27:15.509Z,24.67
2023-07-02T19:29:43.423Z,22.38
2023-07-02T19:32:10.644Z,23.58
2023-07-02T19:34:37.776Z,20.85
2023-07-02T19:37:07.361Z,21.88
2023-07-02T19:39:35.178Z,20.70
2023-07-02T19:42:02.513Z,22.42
2023-07-02T19:44:29.637Z,16.63
2023-07-02T19:46:56.808Z,27.15
2023-07-02T19:49:23.830Z,19.70
2023-07-02T19:51:51.963Z,25.20
2023-07-02T19:54:19.713Z,26.63
2023-07-02T19:56:49.427Z,23.73
2023-07-02T19:59:17.259Z,22.40
2023-07-02T20:01:45.589Z,18.73
2023-07-02T20:04:24.185Z,21.25
2023-07-02T20:06:54.836Z,21.27
2023-07-02T20:09:22.538Z,24.05
2023-07-02T20:11:49.679Z,18.70
2023-07-02T20:14:17.420Z,21.63
2023-07-02T20:16:51.742Z,24.67
2023-07-02T20:19:21.166Z,19.48
2023-07-02T20:21:48.280Z,21.92
2023-07-02T20:24:15.259Z,21.33
2023-07-02T20:26:42.338Z,17.92
2023-07-02T20:29:09.465Z,25.15
2023-07-02T20:31:36.647Z,17.45
2023-07-02T20:34:05.751Z,20.58
2023-07-02T20:36:36.366Z,19.55
2023-07-02T20:39:05.223Z,27.17
2023-07-02T20:41:37.124Z,19.88
2023-07-02T20:44:05.013Z,21.92
2023-07-02T20:46:33.558Z,20.42
2023-07-02T20:49:00.968Z,20.58
2023-07-02T20:51:30.717Z,20.42
2023-07-02T20:53:57.696Z,21.08
2023-07-02T20:56:24.971Z,20.23
2023-07-02T20:58:54.718Z,24.63
2023-07-02T21:01:22.116Z,23.00
2023-07-02T21:03:49.754Z,17.52
2023-07-02T21:06:16.784Z,19.95
2023-07-02T21:08:44.105Z,22.02
2023-07-02T21:11:24.186Z,20.83
2023-07-02T21:13:58.941Z,21.42
2023-07-02T21:16:26.107Z,30.25
2023-07-02T21:18:53.290Z,23.67
2023-07-02T21:21:45.656Z,25.30
2023-07-02T21:24:14.255Z,18.48
2023-07-02T21:26:41.355Z,21.23
2023-07-02T21:29:08.888Z,26.95
2023-07-02T21:31:36.193Z,20.88
2023-07-02T21:34:03.282Z,22.50
2023-07-02T21:36:31.562Z,20.33
2023-07-02T21:39:01.445Z,19.27
2023-07-02T21:41:29.166Z,21.48
2023-07-02T21:43:56.656Z,19.25
2023-07-02T21:46:23.673Z,25.73
2023-07-02T21:48:50.742Z,21.67
2023-07-02T21:51:18.985Z,20.63
2023-07-02T21:53:46.347Z,21.52
2023-07-02T21:56:13.337Z,23.65
2023-07-02T21:58:41.006Z,26.60
2023-07-02T22:01:08.164Z,18.92
2023-07-02T22:03:35.200Z,21.92
2023-07-02T22:06:02.239Z,22.70
2023-07-02T22:08:29.545Z,18.80
2023-07-02T22:11:05.780Z,27.90
2023-07-02T22:13:36.361Z,21.70
2023-07-02T22:16:03.419Z,29.20
2023-07-02T22:18:30.507Z,24.42
2023-07-02T22:20:57.546Z,20.00
2023-07-02T22:23:24.553Z,18.50
2023-07-02T22:25:51.738Z,18.27
2023-07-02T22:28:18.940Z,23.08
2023-07-02T22:30:45.926Z,23.20
2023-07-02T22:33:12.948Z,18.88
2023-07-02T22:35:39.929Z,29.00
2023-07-02T22:38:07.000Z,20.80
2023-07-02T22:40:33.960Z,22.08
2023-07-02T22:43:01.124Z,20.98
2023-07-02T22:45:29.067Z,20.70
2023-07-02T22:47:56.080Z,20.00
2023-07-02T22:50:23.463Z,21.13
2023-07-02T22:52:51.113Z,18.65
2023-07-02T22:55:18.261Z,19.95
2023-07-02T22:57:45.461Z,23.13
2023-07-02T23:00:17.206Z,24.85
2023-07-02T23:02:47.241Z,23.63
2023-07-02T23:05:18.906Z,22.67
2023-07-02T23:10:16.921Z,22.80
2023-07-02T23:12:47.890Z,19.95
2023-07-02T23:15:17.072Z,17.30
2023-07-02T23:17:53.691Z,21.85
2023-07-02T23:20:21.405Z,23.85
2023-07-02T23:22:51.339Z,17.33
2023-07-02T23:25:24.005Z,16.90
2023-07-02T23:27:54.417Z,21.73
2023-07-02T23:30:28.117Z,21.88
2023-07-02T23:32:55.483Z,22.95
2023-07-02T23:35:22.699Z,22.60
2023-07-02T23:37:55.779Z,20.75
2023-07-02T23:40:24.553Z,24.38
2023-07-02T23:42:52.105Z,16.98
2023-07-02T23:45:19.341Z,20.58
2023-07-02T23:47:46.736Z,21.88
2023-07-02T23:50:17.785Z,20.35
2023-07-02T23:52:48.564Z,22.70
2023-07-02T23:55:18.440Z,18.17
2023-07-02T23:57:46.036Z,18.30
